Time,TemperatureF,DewpointF,PressureIn,WindDirection,WindDirectionDegrees,WindSpeedMPH,WindSpeedGustMPH,Humidity,HourlyPrecipIn,Conditions,Clouds,dailyrainin,SoftwareType,DateUTC
2013-01-10 00:04:00,52.0,0.0,29.81,SW,214,9.0,12.0,42,-99.99,,,-99.99,,2013-01-10 08:04:00,
2013-01-10 00:12:00,52.0,0.0,29.81,SW,215,8.0,10.0,40,-99.99,,,-99.99,,2013-01-10 08:12:00,
2013-01-10 00:20:00,52.0,0.0,29.81,SW,226,8.0,9.0,41,-99.99,,,-99.99,,2013-01-10 08:20:00,
2013-01-10 00:28:00,52.0,0.0,29.80,SW,216,7.0,12.0,42,-99.99,,,-99.99,,2013-01-10 08:28:00,
2013-01-10 00:36:00,53.0,0.0,29.80,SW,224,8.0,12.0,43,-99.99,,,-99.99,,2013-01-10 08:36:00,
2013-01-10 00:44:00,53.0,0.0,29.80,SW,218,12.0,14.0,48,-99.99,,,-99.99,,2013-01-10 08:44:00,
2013-01-10 00:52:00,53.0,0.0,29.80,West,277,7.0,10.0,45,-99.99,,,-99.99,,2013-01-10 08:52:00,
2013-01-10 01:00:00,52.0,0.0,29.81,NW,318,5.0,6.0,46,-99.99,,,-99.99,,2013-01-10 09:00:00,
2013-01-10 01:08:00,51.0,0.0,29.81,WNW,282,16.0,16.0,45,-99.99,,,-99.99,,2013-01-10 09:08:00,
2013-01-10 01:16:00,54.0,0.0,29.80,WNW,285,22.0,23.0,44,-99.99,,,-99.99,,2013-01-10 09:16:00,
2013-01-10 01:24:00,54.0,0.0,29.81,WNW,300,16.0,21.0,45,-99.99,,,-99.99,,2013-01-10 09:24:00,
2013-01-10 01:32:00,53.0,0.0,29.81,WNW,298,9.0,14.0,49,-99.99,,,-99.99,,2013-01-10 09:32:00,
2013-01-10 01:40:00,52.0,0.0,29.81,West,279,9.0,13.0,47,-99.99,,,-99.99,,2013-01-10 09:40:00,
2013-01-10 01:48:00,53.0,0.0,29.81,WNW,287,12.0,15.0,48,-99.99,,,-99.99,,2013-01-10 09:48:00,
2013-01-10 01:56:00,52.0,0.0,29.81,WNW,300,10.0,14.0,47,-99.99,,,-99.99,,2013-01-10 09:56:00,
2013-01-10 02:04:00,52.0,0.0,29.80,WNW,283,23.0,25.0,47,-99.99,,,-99.99,,2013-01-10 10:04:00,
2013-01-10 02:12:00,53.0,0.0,29.80,West,281,14.0,18.0,44,-99.99,,,-99.99,,2013-01-10 10:12:00,
2013-01-10 02:20:00,52.0,0.0,29.80,WNW,285,15.0,16.0,47,-99.99,,,-99.99,,2013-01-10 10:20:00,
2013-01-10 02:28:00,53.0,0.0,29.80,West,267,10.0,16.0,47,-99.99,,,-99.99,,2013-01-10 10:28:00,
2013-01-10 02:36:00,52.0,0.0,29.80,SW,231,5.0,9.0,45,-99.99,,,-99.99,,2013-01-10 10:36:00,
2013-01-10 02:44:00,51.0,0.0,29.80,SW,217,8.0,10.0,47,-99.99,,,-99.99,,2013-01-10 10:44:00,
2013-01-10 02:52:00,51.0,0.0,29.79,SSW,198,7.0,8.0,48,-99.99,,,-99.99,,2013-01-10 10:52:00,
2013-01-10 03:00:00,50.0,0.0,29.79,SSW,207,10.0,12.0,47,-99.99,,,-99.99,,2013-01-10 11:00:00,
2013-01-10 03:08:00,50.0,0.0,29.78,SSW,200,8.0,12.0,49,-99.99,,,-99.99,,2013-01-10 11:08:00,
2013-01-10 03:16:00,50.0,0.0,29.79,SSW,213,8.0,9.0,50,-99.99,,,-99.99,,2013-01-10 11:16:00,
2013-01-10 03:24:00,49.0,0.0,29.78,SSW,201,9.0,12.0,49,-99.99,,,-99.99,,2013-01-10 11:24:00,
2013-01-10 03:32:00,50.0,0.0,29.78,SSW,199,9.0,12.0,48,-99.99,,,-99.99,,2013-01-10 11:32:00,
2013-01-10 03:40:00,48.0,0.0,29.77,SW,222,10.0,13.0,52,-99.99,,,-99.99,,2013-01-10 11:40:00,
2013-01-10 03:48:00,48.0,0.0,29.77,SW,216,9.0,13.0,52,-99.99,,,-99.99,,2013-01-10 11:48:00,
2013-01-10 03:56:00,48.0,0.0,29.77,SSW,201,16.0,16.0,52,-99.99,,,-99.99,,2013-01-10 11:56:00,
2013-01-10 04:04:00,49.0,0.0,29.76,SW,235,9.0,15.0,53,-99.99,,,-99.99,,2013-01-10 12:04:00,
2013-01-10 04:12:00,48.0,0.0,29.75,SSW,202,12.0,20.0,52,-99.99,,,-99.99,,2013-01-10 12:12:00,
2013-01-10 04:20:00,48.0,0.0,29.75,SSW,197,9.0,15.0,53,-99.99,,,-99.99,,2013-01-10 12:20:00,
2013-01-10 04:28:00,47.0,0.0,29.75,SSW,206,7.0,12.0,53,-99.99,,,-99.99,,2013-01-10 12:28:00,
2013-01-10 04:36:00,47.0,0.0,29.75,SSW,203,9.0,14.0,56,-99.99,,,-99.99,,2013-01-10 12:36:00,
2013-01-10 04:44:00,47.0,0.0,29.74,South,175,14.0,16.0,54,-99.99,,,-99.99,,2013-01-10 12:44:00,
2013-01-10 04:52:00,48.0,0.0,29.74,SSW,208,13.0,16.0,53,-99.99,,,-99.99,,2013-01-10 12:52:00,
2013-01-10 05:00:00,48.0,0.0,29.75,SW,219,14.0,22.0,51,-99.99,,,-99.99,,2013-01-10 13:00:00,
2013-01-10 05:08:00,48.0,0.0,29.75,SW,218,14.0,20.0,52,-99.99,,,-99.99,,2013-01-10 13:08:00,
2013-01-10 05:16:00,48.0,0.0,29.75,SSW,209,18.0,23.0,50,-99.99,,,-99.99,,2013-01-10 13:16:00,
2013-01-10 05:24:00,48.0,0.0,29.75,South,186,17.0,22.0,52,-99.99,,,-99.99,,2013-01-10 13:24:00,
2013-01-10 05:32:00,48.0,0.0,29.76,SSW,206,16.0,20.0,51,-99.99,,,-99.99,,2013-01-10 13:32:00,
2013-01-10 05:40:00,48.0,0.0,29.76,SW,217,10.0,15.0,48,-99.99,,,-99.99,,2013-01-10 13:40:00,
2013-01-10 05:48:00,47.0,0.0,29.76,SSW,202,15.0,17.0,48,-99.99,,,-99.99,,2013-01-10 13:48:00,
2013-01-10 05:56:00,46.0,0.0,29.77,SSW,194,17.0,22.0,46,-99.99,,,-99.99,,2013-01-10 13:56:00,
2013-01-10 06:04:00,45.0,0.0,29.77,SSW,210,16.0,23.0,51,-99.99,,,-99.99,,2013-01-10 14:04:00,
2013-01-10 06:12:00,45.0,0.0,29.78,South,190,15.0,20.0,48,-99.99,,,-99.99,,2013-01-10 14:12:00,
2013-01-10 06:20:00,44.0,0.0,29.78,SW,214,14.0,17.0,47,-99.99,,,-99.99,,2013-01-10 14:20:00,
2013-01-10 06:28:00,44.0,0.0,29.79,SW,223,9.0,13.0,47,-99.99,,,-99.99,,2013-01-10 14:28:00,
2013-01-10 06:36:00,44.0,0.0,29.79,SSW,202,13.0,15.0,46,-99.99,,,-99.99,,2013-01-10 14:36:00,
2013-01-10 06:44:00,43.0,0.0,29.79,SSW,203,12.0,18.0,50,-99.99,,,-99.99,,2013-01-10 14:44:00,
2013-01-10 06:52:00,44.0,0.0,29.79,SSW,204,20.0,25.0,46,-99.99,,,-99.99,,2013-01-10 14:52:00,
2013-01-10 07:00:00,43.0,0.0,29.79,SSW,194,21.0,25.0,45,-99.99,,,-99.99,,2013-01-10 15:00:00,
2013-01-10 07:08:00,43.0,0.0,29.79,South,175,17.0,26.0,47,-99.99,,,-99.99,,2013-01-10 15:08:00,
2013-01-10 07:16:00,43.0,0.0,29.80,SW,227,8.0,14.0,46,-99.99,,,-99.99,,2013-01-10 15:16:00,
2013-01-10 07:24:00,43.0,0.0,29.80,West,264,13.0,18.0,42,-99.99,,,-99.99,,2013-01-10 15:24:00,
2013-01-10 07:32:00,44.0,0.0,29.80,WSW,247,17.0,23.0,37,-99.99,,,-99.99,,2013-01-10 15:32:00,
2013-01-10 07:40:00,44.0,0.0,29.81,West,262,13.0,18.0,39,-99.99,,,-99.99,,2013-01-10 15:40:00,
2013-01-10 07:48:00,44.0,0.0,29.81,SW,236,15.0,20.0,34,-99.99,,,-99.99,,2013-01-10 15:48:00,
2013-01-10 07:56:00,45.0,0.0,29.81,SW,224,13.0,17.0,32,-99.99,,,-99.99,,2013-01-10 15:56:00,
2013-01-10 08:04:00,45.0,0.0,29.81,WSW,237,12.0,21.0,30,-99.99,,,-99.99,,2013-01-10 16:04:00,
2013-01-10 08:12:00,45.0,0.0,29.81,West,259,16.0,20.0,31,-99.99,,,-99.99,,2013-01-10 16:12:00,
2013-01-10 08:20:00,45.0,0.0,29.81,WSW,246,16.0,23.0,30,-99.99,,,-99.99,,2013-01-10 16:20:00,
2013-01-10 08:28:00,46.0,0.0,29.81,WSW,241,13.0,16.0,28,-99.99,,,-99.99,,2013-01-10 16:28:00,
2013-01-10 08:36:00,46.0,0.0,29.81,WSW,243,15.0,22.0,28,-99.99,,,-99.99,,2013-01-10 16:36:00,
2013-01-10 08:44:00,46.0,0.0,29.81,WSW,243,16.0,24.0,30,-99.99,,,-99.99,,2013-01-10 16:44:00,
2013-01-10 08:52:00,46.0,0.0,29.81,WSW,250,15.0,23.0,28,-99.99,,,-99.99,,2013-01-10 16:52:00,
2013-01-10 09:00:00,46.0,0.0,29.80,SW,235,17.0,23.0,28,-99.99,,,-99.99,,2013-01-10 17:00:00,
2013-01-10 09:08:00,46.0,0.0,29.81,WSW,239,10.0,20.0,29,-99.99,,,-99.99,,2013-01-10 17:08:00,
2013-01-10 09:16:00,47.0,0.0,29.81,WSW,253,18.0,22.0,26,-99.99,,,-99.99,,2013-01-10 17:16:00,
2013-01-10 09:24:00,47.0,0.0,29.81,West,265,20.0,20.0,26,-99.99,,,-99.99,,2013-01-10 17:24:00,
2013-01-10 09:32:00,47.0,0.0,29.81,WSW,255,13.0,25.0,27,-99.99,,,-99.99,,2013-01-10 17:32:00,
2013-01-10 09:40:00,47.0,0.0,29.80,WSW,237,18.0,25.0,28,-99.99,,,-99.99,,2013-01-10 17:40:00,
2013-01-10 09:48:00,48.0,0.0,29.81,WSW,238,10.0,25.0,26,-99.99,,,-99.99,,2013-01-10 17:48:00,
2013-01-10 09:56:00,47.0,0.0,29.81,WSW,258,18.0,24.0,29,-99.99,,,-99.99,,2013-01-10 17:56:00,
2013-01-10 10:04:00,47.0,0.0,29.81,WSW,249,15.0,24.0,28,-99.99,,,-99.99,,2013-01-10 18:04:00,
2013-01-10 10:12:00,47.0,0.0,29.81,WSW,241,21.0,26.0,30,-99.99,,,-99.99,,2013-01-10 18:12:00,
2013-01-10 10:20:00,48.0,0.0,29.80,West,278,22.0,25.0,25,-99.99,,,-99.99,,2013-01-10 18:20:00,
2013-01-10 10:28:00,49.0,0.0,29.80,West,274,23.0,29.0,24,-99.99,,,-99.99,,2013-01-10 18:28:00,
2013-01-10 10:36:00,49.0,0.0,29.79,West,271,20.0,29.0,25,-99.99,,,-99.99,,2013-01-10 18:36:00,
2013-01-10 10:44:00,49.0,0.0,29.79,West,271,22.0,28.0,23,-99.99,,,-99.99,,2013-01-10 18:44:00,
2013-01-10 10:52:00,48.0,0.0,29.78,WSW,250,24.0,31.0,26,-99.99,,,-99.99,,2013-01-10 18:52:00,
2013-01-10 11:00:00,48.0,0.0,29.78,WSW,246,28.0,32.0,26,-99.99,,,-99.99,,2013-01-10 19:00:00,
2013-01-10 11:08:00,50.0,0.0,29.78,West,272,24.0,30.0,20,-99.99,,,-99.99,,2013-01-10 19:08:00,
2013-01-10 11:16:00,51.0,0.0,29.77,West,267,24.0,26.0,19,-99.99,,,-99.99,,2013-01-10 19:16:00,
2013-01-10 11:24:00,51.0,0.0,29.77,NW,304,21.0,29.0,17,-99.99,,,-99.99,,2013-01-10 19:24:00,
2013-01-10 11:32:00,51.0,0.0,29.77,West,263,28.0,32.0,20,-99.99,,,-99.99,,2013-01-10 19:32:00,
2013-01-10 11:40:00,51.0,0.0,29.77,West,267,21.0,30.0,20,-99.99,,,-99.99,,2013-01-10 19:40:00,
2013-01-10 11:48:00,50.0,0.0,29.76,West,262,26.0,37.0,22,-99.99,,,-99.99,,2013-01-10 19:48:00,
2013-01-10 11:56:00,49.0,0.0,29.75,West,267,33.0,35.0,23,-99.99,,,-99.99,,2013-01-10 19:56:00,
2013-01-10 12:04:00,49.0,0.0,29.75,West,260,31.0,39.0,23,-99.99,,,-99.99,,2013-01-10 20:04:00,
2013-01-10 12:12:00,49.0,0.0,29.75,WSW,244,24.0,37.0,24,-99.99,,,-99.99,,2013-01-10 20:12:00,
2013-01-10 12:20:00,50.0,0.0,29.74,WSW,250,31.0,33.0,23,-99.99,,,-99.99,,2013-01-10 20:20:00,
2013-01-10 12:28:00,49.0,0.0,29.74,West,261,30.0,37.0,24,-99.99,,,-99.99,,2013-01-10 20:28:00,
2013-01-10 12:36:00,50.0,0.0,29.74,West,266,26.0,33.0,23,-99.99,,,-99.99,,2013-01-10 20:36:00,
2013-01-10 12:44:00,50.0,0.0,29.74,West,267,32.0,36.0,18,-99.99,,,-99.99,,2013-01-10 20:44:00,
2013-01-10 12:52:00,50.0,0.0,29.75,West,265,22.0,35.0,22,-99.99,,,-99.99,,2013-01-10 20:52:00,
2013-01-10 13:00:00,50.0,0.0,29.74,West,267,29.0,32.0,21,-99.99,,,-99.99,,2013-01-10 21:00:00,
2013-01-10 13:08:00,49.0,0.0,29.74,West,270,25.0,37.0,22,-99.99,,,-99.99,,2013-01-10 21:08:00,
2013-01-10 13:16:00,49.0,0.0,29.73,West,268,33.0,36.0,21,-99.99,,,-99.99,,2013-01-10 21:16:00,
2013-01-10 13:24:00,48.0,0.0,29.74,West,273,22.0,37.0,21,-99.99,,,-99.99,,2013-01-10 21:24:00,
2013-01-10 13:32:00,49.0,0.0,29.73,West,272,28.0,37.0,21,-99.99,,,-99.99,,2013-01-10 21:32:00,
2013-01-10 13:40:00,49.0,0.0,29.74,West,264,29.0,35.0,23,-99.99,,,-99.99,,2013-01-10 21:40:00,
2013-01-10 13:48:00,49.0,0.0,29.73,West,260,32.0,33.0,21,-99.99,,,-99.99,,2013-01-10 21:48:00,
2013-01-10 13:56:00,50.0,0.0,29.73,West,274,29.0,36.0,21,-99.99,,,-99.99,,2013-01-10 21:56:00,
2013-01-10 14:04:00,49.0,0.0,29.73,West,278,21.0,36.0,20,-99.99,,,-99.99,,2013-01-10 22:04:00,
2013-01-10 14:12:00,50.0,0.0,29.73,WNW,286,26.0,32.0,19,-99.99,,,-99.99,,2013-01-10 22:12:00,
2013-01-10 14:20:00,49.0,0.0,29.73,WNW,292,26.0,37.0,22,-99.99,,,-99.99,,2013-01-10 22:20:00,
2013-01-10 14:28:00,49.0,0.0,29.73,WNW,289,26.0,39.0,19,-99.99,,,-99.99,,2013-01-10 22:28:00,
2013-01-10 14:36:00,49.0,0.0,29.73,WNW,287,29.0,36.0,20,-99.99,,,-99.99,,2013-01-10 22:36:00,
2013-01-10 14:44:00,48.0,0.0,29.73,WNW,286,26.0,36.0,18,-99.99,,,-99.99,,2013-01-10 22:44:00,
2013-01-10 14:52:00,48.0,0.0,29.73,West,277,21.0,39.0,19,-99.99,,,-99.99,,2013-01-10 22:52:00,
2013-01-10 15:00:00,48.0,0.0,29.73,WNW,287,26.0,43.0,21,-99.99,,,-99.99,,2013-01-10 23:00:00,
2013-01-10 15:08:00,47.0,0.0,29.73,West,276,26.0,37.0,22,-99.99,,,-99.99,,2013-01-10 23:08:00,
2013-01-10 15:16:00,47.0,0.0,29.73,West,281,32.0,35.0,23,-99.99,,,-99.99,,2013-01-10 23:16:00,
2013-01-10 15:24:00,47.0,0.0,29.73,WNW,294,32.0,33.0,26,-99.99,,,-99.99,,2013-01-10 23:24:00,
2013-01-10 15:32:00,47.0,0.0,29.73,West,272,26.0,37.0,22,-99.99,,,-99.99,,2013-01-10 23:32:00,
2013-01-10 15:40:00,46.0,0.0,29.74,WNW,291,26.0,39.0,22,-99.99,,,-99.99,,2013-01-10 23:40:00,
2013-01-10 15:48:00,46.0,0.0,29.74,West,279,23.0,40.0,23,-99.99,,,-99.99,,2013-01-10 23:48:00,
2013-01-10 15:56:00,46.0,0.0,29.73,WNW,300,23.0,37.0,22,-99.99,,,-99.99,,2013-01-10 23:56:00,
2013-01-10 16:04:00,46.0,0.0,29.73,WNW,302,33.0,41.0,19,-99.99,,,-99.99,,2013-01-11 00:04:00,
2013-01-10 16:12:00,46.0,0.0,29.74,WNW,300,24.0,40.0,20,-99.99,,,-99.99,,2013-01-11 00:12:00,
2013-01-10 16:20:00,45.0,0.0,29.73,NW,307,31.0,39.0,23,-99.99,,,-99.99,,2013-01-11 00:20:00,
2013-01-10 16:28:00,45.0,0.0,29.74,NW,304,20.0,39.0,22,-99.99,,,-99.99,,2013-01-11 00:28:00,
2013-01-10 16:36:00,45.0,0.0,29.74,WNW,301,21.0,33.0,20,-99.99,,,-99.99,,2013-01-11 00:36:00,
2013-01-10 16:44:00,45.0,0.0,29.75,WNW,303,20.0,31.0,22,-99.99,,,-99.99,,2013-01-11 00:44:00,
2013-01-10 16:52:00,44.0,0.0,29.75,WNW,301,21.0,32.0,24,-99.99,,,-99.99,,2013-01-11 00:52:00,
2013-01-10 17:00:00,44.0,0.0,29.75,WNW,297,35.0,35.0,22,-99.99,,,-99.99,,2013-01-11 01:00:00,
2013-01-10 17:08:00,44.0,0.0,29.76,WNW,301,28.0,32.0,23,-99.99,,,-99.99,,2013-01-11 01:08:00,
2013-01-10 17:16:00,44.0,0.0,29.77,West,280,22.0,28.0,24,-99.99,,,-99.99,,2013-01-11 01:16:00,
2013-01-10 17:24:00,44.0,0.0,29.78,WNW,290,20.0,28.0,24,-99.99,,,-99.99,,2013-01-11 01:24:00,
2013-01-10 17:32:00,44.0,0.0,29.78,WNW,300,28.0,29.0,22,-99.99,,,-99.99,,2013-01-11 01:32:00,
2013-01-10 17:40:00,44.0,0.0,29.79,WNW,299,22.0,28.0,22,-99.99,,,-99.99,,2013-01-11 01:40:00,
2013-01-10 17:48:00,44.0,0.0,29.79,NW,309,21.0,26.0,21,-99.99,,,-99.99,,2013-01-11 01:48:00,
2013-01-10 17:56:00,43.0,0.0,29.80,NW,317,22.0,30.0,23,-99.99,,,-99.99,,2013-01-11 01:56:00,
2013-01-10 18:04:00,43.0,0.0,29.80,WNW,302,20.0,26.0,25,-99.99,,,-99.99,,2013-01-11 02:04:00,
2013-01-10 18:12:00,43.0,0.0,29.81,WNW,301,20.0,26.0,25,-99.99,,,-99.99,,2013-01-11 02:12:00,
2013-01-10 18:20:00,43.0,0.0,29.81,WNW,301,24.0,25.0,25,-99.99,,,-99.99,,2013-01-11 02:20:00,
2013-01-10 18:28:00,42.0,0.0,29.82,NW,320,13.0,16.0,25,-99.99,,,-99.99,,2013-01-11 02:28:00,
2013-01-10 18:36:00,42.0,0.0,29.83,WNW,301,17.0,20.0,23,-99.99,,,-99.99,,2013-01-11 02:36:00,
2013-01-10 18:44:00,42.0,0.0,29.83,WNW,297,21.0,30.0,23,-99.99,,,-99.99,,2013-01-11 02:44:00,
2013-01-10 18:52:00,41.0,0.0,29.84,WNW,284,16.0,21.0,26,-99.99,,,-99.99,,2013-01-11 02:52:00,
2013-01-10 19:00:00,41.0,0.0,29.84,West,262,22.0,23.0,28,-99.99,,,-99.99,,2013-01-11 03:00:00,
2013-01-10 19:08:00,40.0,0.0,29.84,WNW,301,20.0,21.0,32,-99.99,,,-99.99,,2013-01-11 03:08:00,
2013-01-10 19:16:00,40.0,0.0,29.85,WNW,286,14.0,18.0,34,-99.99,,,-99.99,,2013-01-11 03:16:00,
2013-01-10 19:24:00,40.0,0.0,29.86,NW,307,12.0,17.0,32,-99.99,,,-99.99,,2013-01-11 03:24:00,
2013-01-10 19:32:00,41.0,0.0,29.86,WNW,300,13.0,17.0,25,-99.99,,,-99.99,,2013-01-11 03:32:00,
2013-01-10 19:40:00,40.0,0.0,29.87,WNW,299,20.0,20.0,31,-99.99,,,-99.99,,2013-01-11 03:40:00,
2013-01-10 19:48:00,39.0,0.0,29.88,WNW,295,17.0,22.0,32,-99.99,,,-99.99,,2013-01-11 03:48:00,
2013-01-10 19:56:00,39.0,0.0,29.89,West,281,16.0,20.0,33,-99.99,,,-99.99,,2013-01-11 03:56:00,
2013-01-10 20:04:00,38.0,0.0,29.89,West,278,12.0,17.0,35,-99.99,,,-99.99,,2013-01-11 04:04:00,
2013-01-10 20:12:00,38.0,0.0,29.89,WNW,292,15.0,17.0,36,-99.99,,,-99.99,,2013-01-11 04:12:00,
2013-01-10 20:20:00,39.0,0.0,29.90,WNW,290,14.0,18.0,32,-99.99,,,-99.99,,2013-01-11 04:20:00,
2013-01-10 20:28:00,39.0,0.0,29.90,WNW,302,12.0,16.0,32,-99.99,,,-99.99,,2013-01-11 04:28:00,
2013-01-10 20:36:00,40.0,0.0,29.90,NW,308,10.0,15.0,32,-99.99,,,-99.99,,2013-01-11 04:36:00,
2013-01-10 20:44:00,40.0,0.0,29.90,WNW,298,16.0,16.0,32,-99.99,,,-99.99,,2013-01-11 04:44:00,
2013-01-10 20:52:00,39.0,0.0,29.91,WNW,284,14.0,15.0,35,-99.99,,,-99.99,,2013-01-11 04:52:00,
2013-01-10 21:04:00,38.0,0.0,29.91,West,270,9.0,14.0,38,-99.99,,,-99.99,,2013-01-11 05:04:00,
2013-01-10 21:12:00,37.0,0.0,29.91,WNW,282,13.0,13.0,38,-99.99,,,-99.99,,2013-01-11 05:12:00,
2013-01-10 21:20:00,38.0,0.0,29.92,WNW,296,15.0,16.0,31,-99.99,,,-99.99,,2013-01-11 05:20:00,
2013-01-10 21:24:00,39.0,0.0,29.92,WNW,292,16.0,18.0,30,-99.99,,,-99.99,,2013-01-11 05:24:00,
2013-01-10 21:28:00,39.0,0.0,29.92,NW,307,14.0,17.0,29,-99.99,,,-99.99,,2013-01-11 05:28:00,
2013-01-10 21:36:00,39.0,0.0,29.93,WNW,296,13.0,14.0,29,-99.99,,,-99.99,,2013-01-11 05:36:00,
2013-01-10 21:44:00,38.0,0.0,29.93,WNW,301,12.0,14.0,29,-99.99,,,-99.99,,2013-01-11 05:44:00,
2013-01-10 21:52:00,38.0,0.0,29.93,NW,317,10.0,13.0,29,-99.99,,,-99.99,,2013-01-11 05:52:00,
2013-01-10 22:00:00,38.0,0.0,29.94,WNW,299,12.0,14.0,31,-99.99,,,-99.99,,2013-01-11 06:00:00,
2013-01-10 22:08:00,39.0,0.0,29.94,WNW,293,12.0,17.0,29,-99.99,,,-99.99,,2013-01-11 06:08:00,
2013-01-10 22:16:00,37.0,0.0,29.94,West,276,14.0,16.0,38,-99.99,,,-99.99,,2013-01-11 06:16:00,
2013-01-10 22:24:00,37.0,0.0,29.94,WNW,286,12.0,15.0,41,-99.99,,,-99.99,,2013-01-11 06:24:00,
2013-01-10 22:32:00,36.0,0.0,29.95,WNW,289,9.0,12.0,38,-99.99,,,-99.99,,2013-01-11 06:32:00,
2013-01-10 22:40:00,38.0,0.0,29.94,NW,305,15.0,18.0,30,-99.99,,,-99.99,,2013-01-11 06:40:00,
2013-01-10 22:48:00,39.0,0.0,29.95,WNW,290,13.0,15.0,30,-99.99,,,-99.99,,2013-01-11 06:48:00,
2013-01-10 22:56:00,38.0,0.0,29.95,WNW,291,8.0,10.0,30,-99.99,,,-99.99,,2013-01-11 06:56:00,
2013-01-10 23:04:00,38.0,0.0,29.95,WNW,293,10.0,10.0,30,-99.99,,,-99.99,,2013-01-11 07:04:00,
2013-01-10 23:12:00,38.0,0.0,29.95,WNW,296,9.0,12.0,29,-99.99,,,-99.99,,2013-01-11 07:12:00,
2013-01-10 23:20:00,37.0,0.0,29.95,WNW,296,7.0,8.0,30,-99.99,,,-99.99,,2013-01-11 07:20:00,
2013-01-10 23:28:00,35.0,0.0,29.95,NNW,334,3.0,5.0,34,-99.99,,,-99.99,,2013-01-11 07:28:00,
2013-01-10 23:36:00,34.0,0.0,29.95,NE,49,6.0,8.0,34,-99.99,,,-99.99,,2013-01-11 07:36:00,
2013-01-10 23:44:00,35.0,0.0,29.96,NE,45,5.0,5.0,33,-99.99,,,-99.99,,2013-01-11 07:44:00,
2013-01-10 23:52:00,35.0,0.0,29.96,NE,55,1.0,2.0,32,-99.99,,,-99.99,,2013-01-11 07:52:00,